createdAt,value
2023-03-28T00:00:12.682Z,3.17
2023-03-28T00:03:19.860Z,3.30
2023-03-28T00:06:26.847Z,3.16
2023-03-28T00:09:30.839Z,3.30
2023-03-28T00:12:34.628Z,3.44
2023-03-28T00:15:41.023Z,3.58
2023-03-28T00:18:44.877Z,3.73
2023-03-28T00:21:50.857Z,3.91
2023-03-28T00:24:54.448Z,4.08
2023-03-28T00:27:58.454Z,4.24
2023-03-28T00:31:09.413Z,4.50
2023-03-28T00:34:13.724Z,4.86
2023-03-28T00:37:18.055Z,5.15
2023-03-28T00:40:22.770Z,5.12
2023-03-28T00:43:47.402Z,5.31
2023-03-28T00:46:52.586Z,5.23
2023-03-28T00:50:01.509Z,5.10
2023-03-28T00:53:27.326Z,5.00
2023-03-28T00:56:35.484Z,5.09
2023-03-28T00:59:40.514Z,5.12
2023-03-28T01:02:51.587Z,5.49
2023-03-28T01:05:57.274Z,5.83
2023-03-28T01:09:09.946Z,6.16
2023-03-28T01:12:16.680Z,6.41
2023-03-28T01:15:19.860Z,6.65
2023-03-28T01:18:30.914Z,6.95
2023-03-28T01:22:07.196Z,7.21
2023-03-28T01:25:54.290Z,7.53
2023-03-28T01:29:35.772Z,8.75
2023-03-28T01:32:57.183Z,9.63
2023-03-28T01:36:34.096Z,10.37
2023-03-28T01:39:52.098Z,10.96
2023-03-28T01:43:09.253Z,11.46
2023-03-28T01:46:38.179Z,12.07
2023-03-28T01:49:52.659Z,12.60
2023-03-28T01:53:43.777Z,12.91
2023-03-28T01:56:54.696Z,13.14
2023-03-28T02:00:30.175Z,13.58
2023-03-28T02:03:48.575Z,13.65
2023-03-28T02:07:09.832Z,13.59
2023-03-28T02:10:33.390Z,13.82
2023-03-28T02:13:58.344Z,14.13
2023-03-28T02:17:44.581Z,14.94
2023-03-28T02:21:17.700Z,15.26
2023-03-28T02:24:40.661Z,15.88
2023-03-28T02:27:53.283Z,15.82
2023-03-28T02:31:08.964Z,15.96
2023-03-28T02:34:13.257Z,15.64
2023-03-28T02:37:44.940Z,16.33
2023-03-28T02:40:53.846Z,16.24
2023-03-28T02:44:27.656Z,16.73
2023-03-28T02:47:40.631Z,17.01
2023-03-28T02:50:54.131Z,16.99
2023-03-28T02:54:21.293Z,16.25
2023-03-28T02:57:47.040Z,17.17
2023-03-28T03:00:52.159Z,17.83
2023-03-28T03:03:58.356Z,17.53
2023-03-28T03:07:03.072Z,17.61
2023-03-28T03:10:11.286Z,18.55
2023-03-28T03:13:17.268Z,18.83
2023-03-28T03:16:20.482Z,19.03
2023-03-28T03:19:25.153Z,19.73
2023-03-28T03:22:28.174Z,19.60
2023-03-28T03:25:32.294Z,20.39
2023-03-28T03:28:50.163Z,19.90
2023-03-28T03:31:54.562Z,19.95
2023-03-28T03:35:16.660Z,20.10
2023-03-28T03:38:20.986Z,20.43
2023-03-28T03:41:25.652Z,20.70
2023-03-28T03:44:29.392Z,19.88
2023-03-28T03:47:33.871Z,19.92
2023-03-28T03:50:37.776Z,20.84
2023-03-28T03:53:51.680Z,20.34
2023-03-28T03:56:59.659Z,20.87
2023-03-28T04:00:13.091Z,22.33
2023-03-28T04:03:24.249Z,22.50
2023-03-28T04:06:30.799Z,23.30
2023-03-28T04:09:41.080Z,23.47
2023-03-28T04:12:46.224Z,22.92
2023-03-28T04:15:49.470Z,23.17
2023-03-28T04:19:14.318Z,20.90
2023-03-28T04:22:19.323Z,18.63
2023-03-28T04:25:30.571Z,16.91
2023-03-28T04:28:39.819Z,15.40
2023-03-28T04:31:50.463Z,18.46
2023-03-28T04:35:17.173Z,21.22
2023-03-28T04:38:29.595Z,21.28
2023-03-28T04:41:37.133Z,22.47
2023-03-28T04:44:40.370Z,18.68
2023-03-28T04:47:45.044Z,19.56
2023-03-28T04:50:56.594Z,21.75
2023-03-28T04:54:01.147Z,22.29
2023-03-28T04:57:33.146Z,24.22
2023-03-28T05:00:40.748Z,24.34
2023-03-28T05:04:14.996Z,22.62
2023-03-28T05:07:20.305Z,20.88
2023-03-28T05:10:24.342Z,20.04
2023-03-28T05:13:30.397Z,18.65
2023-03-28T05:16:44.884Z,19.72
2023-03-28T05:20:14.129Z,21.36
2023-03-28T05:23:25.017Z,21.73
2023-03-28T05:26:29.430Z,23.27
2023-03-28T05:29:33.044Z,25.25
2023-03-28T05:32:38.307Z,24.55
2023-03-28T05:35:45.220Z,24.16
2023-03-28T05:38:48.639Z,25.60
2023-03-28T05:41:54.465Z,25.68
2023-03-28T05:44:58.281Z,28.42
2023-03-28T05:48:34.372Z,28.29
2023-03-28T05:51:38.250Z,28.30
2023-03-28T05:54:42.068Z,27.80
2023-03-28T05:57:54.708Z,26.46
2023-03-28T06:01:00.928Z,26.16
2023-03-28T06:04:04.791Z,24.02
2023-03-28T06:07:09.427Z,23.39
2023-03-28T06:10:14.228Z,22.96
2023-03-28T06:13:28.176Z,19.80
2023-03-28T06:16:31.563Z,17.80
2023-03-28T06:19:36.313Z,19.74
2023-03-28T06:22:40.685Z,23.17
2023-03-28T06:25:47.150Z,23.27
2023-03-28T06:28:53.346Z,23.70
2023-03-28T06:32:08.817Z,26.41
2023-03-28T06:35:12.062Z,28.10
2023-03-28T06:38:15.879Z,27.73
2023-03-28T06:41:25.123Z,27.62
2023-03-28T06:44:28.500Z,26.75
2023-03-28T06:47:52.390Z,25.28
2023-03-28T06:51:02.450Z,22.77
2023-03-28T06:54:05.865Z,22.10
2023-03-28T06:57:09.635Z,21.17
2023-03-28T07:00:15.041Z,19.29
2023-03-28T07:03:44.757Z,17.40
2023-03-28T07:06:53.717Z,16.96
2023-03-28T07:09:57.333Z,16.28
2023-03-28T07:13:01.319Z,16.57
2023-03-28T07:16:09.604Z,18.46
2023-03-28T07:19:12.676Z,17.85
2023-03-28T07:22:20.668Z,17.24
2023-03-28T07:25:25.249Z,16.67
2023-03-28T07:28:28.691Z,22.00
2023-03-28T07:31:32.837Z,23.98
2023-03-28T07:34:36.115Z,22.88
2023-03-28T07:37:40.452Z,23.12
2023-03-28T07:41:06.818Z,20.91
2023-03-28T07:44:10.056Z,24.81
2023-03-28T07:47:13.601Z,26.45
2023-03-28T07:50:17.587Z,22.74
2023-03-28T07:53:20.740Z,19.92
2023-03-28T07:56:24.168Z,22.58
2023-03-28T07:59:46.918Z,24.65
2023-03-28T08:02:51.159Z,24.66
2023-03-28T08:05:54.683Z,22.72
2023-03-28T08:08:59.168Z,21.97
2023-03-28T08:12:08.424Z,23.18
2023-03-28T08:15:12.569Z,25.03
2023-03-28T08:18:21.673Z,26.90
2023-03-28T08:21:26.834Z,27.86
2023-03-28T08:24:35.769Z,28.55
2023-03-28T08:27:59.308Z,24.94
2023-03-28T08:31:03.347Z,22.77
2023-03-28T08:34:07.108Z,23.21
2023-03-28T08:37:14.996Z,21.91
2023-03-28T08:40:26.734Z,20.14
2023-03-28T08:43:45.882Z,19.26
2023-03-28T08:46:56.275Z,19.80
2023-03-28T08:50:15.466Z,19.34
2023-03-28T08:53:27.455Z,19.15
2023-03-28T08:56:33.504Z,19.30
2023-03-28T09:00:20.437Z,20.07
2023-03-28T09:03:25.739Z,20.35
2023-03-28T09:06:41.973Z,19.96
2023-03-28T09:09:59.584Z,19.07
2023-03-28T09:14:22.021Z,17.55
2023-03-28T09:17:42.952Z,16.94
2023-03-28T09:21:12.346Z,16.45
2023-03-28T09:24:50.385Z,16.75
2023-03-28T09:28:04.291Z,17.21
2023-03-28T09:31:11.866Z,17.48
2023-03-28T09:34:29.737Z,17.71
2023-03-28T09:37:43.580Z,16.91
2023-03-28T09:40:54.532Z,15.95
2023-03-28T09:44:01.413Z,15.65
2023-03-28T09:47:16.374Z,15.52
2023-03-28T09:50:26.280Z,15.16
2023-03-28T09:53:38.113Z,14.72
2023-03-28T09:56:44.957Z,14.60
2023-03-28T10:00:08.816Z,14.33
2023-03-28T10:03:33.336Z,14.50
2023-03-28T10:06:42.592Z,13.63
2023-03-28T10:09:51.205Z,13.58
2023-03-28T10:12:59.496Z,13.25
2023-03-28T10:16:05.059Z,12.95
2023-03-28T10:19:14.886Z,12.55
2023-03-28T10:22:35.145Z,12.33
2023-03-28T10:25:45.234Z,12.04
2023-03-28T10:28:54.009Z,11.86
2023-03-28T10:32:00.904Z,11.52
2023-03-28T10:35:26.281Z,11.35
2023-03-28T10:38:49.571Z,11.26
2023-03-28T10:41:58.104Z,11.05
2023-03-28T10:45:44.709Z,10.95
2023-03-28T10:49:15.146Z,10.82
2023-03-28T10:52:34.830Z,10.66
2023-03-28T10:55:44.125Z,10.62
2023-03-28T10:59:20.790Z,10.58
2023-03-28T11:02:51.094Z,10.50
2023-03-28T11:06:22.287Z,10.40
2023-03-28T11:09:41.414Z,10.32
2023-03-28T11:13:52.401Z,10.35
2023-03-28T11:17:11.902Z,10.22
2023-03-28T11:20:52.724Z,10.19
2023-03-28T11:24:00.553Z,10.18
2023-03-28T11:27:23.505Z,10.15
2023-03-28T11:30:41.859Z,10.14
2023-03-28T11:34:40.191Z,10.17
2023-03-28T11:38:08.295Z,10.10
2023-03-28T11:41:19.422Z,10.08
2023-03-28T11:44:47.794Z,10.15
2023-03-28T11:48:06.145Z,10.11
2023-03-28T11:51:28.865Z,9.93
2023-03-28T11:54:44.656Z,9.98
2023-03-28T11:58:17.722Z,10.04
2023-03-28T12:01:45.390Z,10.12
2023-03-28T12:04:59.615Z,9.96
2023-03-28T12:08:14.343Z,9.91
2023-03-28T12:11:43.579Z,10.02
2023-03-28T12:15:07.649Z,9.96
2023-03-28T12:18:35.168Z,10.12
2023-03-28T12:21:59.475Z,10.03
2023-03-28T12:25:30.428Z,9.95
2023-03-28T12:28:44.081Z,9.98
2023-03-28T12:32:14.685Z,9.83
2023-03-28T12:35:40.220Z,9.77
2023-03-28T12:39:05.953Z,9.55
2023-03-28T12:42:15.382Z,9.48
2023-03-28T12:45:43.865Z,9.45
2023-03-28T12:48:51.008Z,9.37
2023-03-28T12:52:06.550Z,9.33
2023-03-28T12:55:26.727Z,9.23
2023-03-28T12:58:37.653Z,9.21
2023-03-28T13:01:53.734Z,9.21
2023-03-28T13:05:16.135Z,9.17
2023-03-28T13:08:41.518Z,9.12
2023-03-28T13:11:58.457Z,9.16
2023-03-28T13:15:14.077Z,9.01
2023-03-28T13:18:21.315Z,8.92
2023-03-28T13:21:46.800Z,8.81
2023-03-28T13:24:49.932Z,8.73
2023-03-28T13:28:12.070Z,8.64
2023-03-28T13:31:26.917Z,8.53
2023-03-28T13:34:34.966Z,8.51
2023-03-28T13:37:44.211Z,8.46
2023-03-28T13:40:57.138Z,8.38
2023-03-28T13:44:04.583Z,8.35
2023-03-28T13:47:16.075Z,8.26
2023-03-28T13:50:29.220Z,8.18
2023-03-28T13:53:46.400Z,8.06
2023-03-28T13:56:53.676Z,7.99
2023-03-28T14:00:00.788Z,7.88
2023-03-28T14:03:12.175Z,7.91
2023-03-28T14:06:24.540Z,7.89
2023-03-28T14:09:30.712Z,7.98
2023-03-28T14:12:34.445Z,8.02
2023-03-28T14:15:41.101Z,7.89
2023-03-28T14:18:48.322Z,7.83
2023-03-28T14:21:53.172Z,7.89
2023-03-28T14:25:03.259Z,7.84
2023-03-28T14:28:12.163Z,7.86
2023-03-28T14:31:33.017Z,7.79
2023-03-28T14:34:39.134Z,7.70
2023-03-28T14:37:52.385Z,7.68
2023-03-28T14:40:55.628Z,7.60
2023-03-28T14:43:59.467Z,7.59
2023-03-28T14:47:03.567Z,7.57
2023-03-28T14:50:09.119Z,7.67
2023-03-28T14:53:20.555Z,7.68
2023-03-28T14:56:28.961Z,7.81
2023-03-28T14:59:41.878Z,7.92
2023-03-28T15:02:47.328Z,7.93
2023-03-28T15:05:52.684Z,8.02
2023-03-28T15:09:00.223Z,8.08
2023-03-28T15:12:09.514Z,8.04
2023-03-28T15:15:27.386Z,8.08
2023-03-28T15:18:34.485Z,8.25
2023-03-28T15:21:40.360Z,8.11
2023-03-28T15:24:45.149Z,8.15
2023-03-28T15:27:54.026Z,8.08
2023-03-28T15:31:01.433Z,8.05
2023-03-28T15:34:10.866Z,8.02
2023-03-28T15:37:17.473Z,8.07
2023-03-28T15:40:20.503Z,8.01
2023-03-28T15:43:58.290Z,8.06
2023-03-28T15:47:13.888Z,8.28
2023-03-28T15:50:27.655Z,8.26
2023-03-28T15:53:31.175Z,8.44
2023-03-28T15:56:37.658Z,8.30
2023-03-28T15:59:46.008Z,8.38
2023-03-28T16:02:49.127Z,8.36
2023-03-28T16:06:10.269Z,8.38
2023-03-28T16:09:21.210Z,8.24
2023-03-28T16:12:26.416Z,8.22
2023-03-28T16:15:47.771Z,8.17
2023-03-28T16:19:03.505Z,8.24
2023-03-28T16:22:07.256Z,8.12
2023-03-28T16:25:11.852Z,8.12
2023-03-28T16:28:21.443Z,8.13
2023-03-28T16:31:25.532Z,8.10
2023-03-28T16:34:29.403Z,8.12
2023-03-28T16:37:33.415Z,8.08
2023-03-28T16:40:39.730Z,8.04
2023-03-28T16:43:43.733Z,7.99
2023-03-28T16:46:47.554Z,7.95
2023-03-28T16:49:51.670Z,7.92
2023-03-28T16:52:55.393Z,7.95
2023-03-28T16:55:59.950Z,7.88
2023-03-28T16:59:05.085Z,7.82
2023-03-28T17:02:10.983Z,7.77
2023-03-28T17:05:15.439Z,7.76
2023-03-28T17:08:19.581Z,7.80
2023-03-28T17:11:24.033Z,7.74
2023-03-28T17:14:28.761Z,7.67
2023-03-28T17:17:32.606Z,7.63
2023-03-28T17:20:36.993Z,7.62
2023-03-28T17:23:42.515Z,7.67
2023-03-28T17:26:46.659Z,7.52
2023-03-28T17:29:51.909Z,7.58
2023-03-28T17:32:56.189Z,7.62
2023-03-28T17:36:00.138Z,7.59
2023-03-28T17:39:05.239Z,7.59
2023-03-28T17:42:10.224Z,7.39
2023-03-28T17:45:14.273Z,7.36
2023-03-28T17:48:17.881Z,7.28
2023-03-28T17:51:22.292Z,7.22
2023-03-28T17:54:26.876Z,7.12
2023-03-28T17:57:31.321Z,7.04
2023-03-28T18:00:35.172Z,6.94
2023-03-28T18:03:40.109Z,6.82
2023-03-28T18:07:16.127Z,6.71
2023-03-28T18:10:21.771Z,6.72
2023-03-28T18:13:25.405Z,6.71
2023-03-28T18:16:30.163Z,6.70
2023-03-28T18:19:33.905Z,6.68
2023-03-28T18:22:39.398Z,6.66
2023-03-28T18:25:43.160Z,6.64
2023-03-28T18:28:47.294Z,6.61
2023-03-28T18:31:50.926Z,6.53
2023-03-28T18:34:55.023Z,6.50
2023-03-28T18:37:58.854Z,6.50
2023-03-28T18:41:03.000Z,6.48
2023-03-28T18:44:06.722Z,6.48
2023-03-28T18:47:11.625Z,6.45
2023-03-28T18:50:18.454Z,6.54
2023-03-28T18:53:23.396Z,6.49
2023-03-28T18:56:26.836Z,6.41
2023-03-28T18:59:31.934Z,6.39
2023-03-28T19:02:35.803Z,6.37
2023-03-28T19:05:39.991Z,6.33
2023-03-28T19:08:45.386Z,6.29
2023-03-28T19:11:53.289Z,6.26
2023-03-28T19:14:57.125Z,6.36
2023-03-28T19:18:02.808Z,6.34
2023-03-28T19:21:07.861Z,6.27
2023-03-28T19:24:12.101Z,6.19
2023-03-28T19:27:16.124Z,6.13
2023-03-28T19:30:20.328Z,6.13
2023-03-28T19:33:24.579Z,6.19
2023-03-28T19:36:28.339Z,6.15
2023-03-28T19:39:32.593Z,6.07
2023-03-28T19:42:37.090Z,6.05
2023-03-28T19:45:44.262Z,6.03
2023-03-28T19:48:48.500Z,5.97
2023-03-28T19:51:53.658Z,6.05
2023-03-28T19:54:58.059Z,6.00
2023-03-28T19:58:04.674Z,5.99
2023-03-28T20:01:09.218Z,5.90
2023-03-28T20:04:12.664Z,5.93
2023-03-28T20:07:20.232Z,5.92
2023-03-28T20:10:23.978Z,5.87
2023-03-28T20:13:28.008Z,5.87
2023-03-28T20:16:31.601Z,5.81
2023-03-28T20:19:35.738Z,5.75
2023-03-28T20:22:39.561Z,5.77
2023-03-28T20:25:43.586Z,5.65
2023-03-28T20:28:50.541Z,5.63
2023-03-28T20:31:55.425Z,5.68
2023-03-28T20:34:58.943Z,5.59
2023-03-28T20:38:03.129Z,5.59
2023-03-28T20:41:17.684Z,5.53
2023-03-28T20:44:22.003Z,5.55
2023-03-28T20:47:26.383Z,5.52
2023-03-28T20:50:41.918Z,5.52
2023-03-28T20:54:07.053Z,5.44
2023-03-28T20:57:10.309Z,5.35
2023-03-28T21:00:15.128Z,5.32
2023-03-28T21:03:18.971Z,5.36
2023-03-28T21:06:25.813Z,5.34
2023-03-28T21:09:29.718Z,5.42
2023-03-28T21:12:32.705Z,5.43
2023-03-28T21:15:36.090Z,5.39
2023-03-28T21:18:40.075Z,5.53
2023-03-28T21:21:43.376Z,5.49
2023-03-28T21:24:46.449Z,5.46
2023-03-28T21:27:49.949Z,5.47
2023-03-28T21:31:11.482Z,5.40
2023-03-28T21:34:14.466Z,5.45
2023-03-28T21:37:18.044Z,5.44
2023-03-28T21:40:21.592Z,5.42
2023-03-28T21:43:24.611Z,5.36
2023-03-28T21:46:28.722Z,5.36
2023-03-28T21:49:33.146Z,5.31
2023-03-28T21:52:37.290Z,5.22
2023-03-28T21:55:41.047Z,5.26
2023-03-28T21:58:44.497Z,5.30
2023-03-28T22:01:47.611Z,5.29
2023-03-28T22:04:51.106Z,5.29
2023-03-28T22:07:54.817Z,5.26
2023-03-28T22:11:01.942Z,5.33
2023-03-28T22:14:05.864Z,5.38
2023-03-28T22:17:09.816Z,5.48
2023-03-28T22:20:15.021Z,5.48
2023-03-28T22:23:18.690Z,5.43
2023-03-28T22:26:21.974Z,5.50
2023-03-28T22:29:25.373Z,5.55
2023-03-28T22:32:28.509Z,5.50
2023-03-28T22:35:32.775Z,5.51
2023-03-28T22:38:37.370Z,5.55
2023-03-28T22:41:45.833Z,5.61
2023-03-28T22:44:49.848Z,5.61
2023-03-28T22:47:53.331Z,5.70
2023-03-28T22:50:58.924Z,5.71
2023-03-28T22:54:04.061Z,5.79
2023-03-28T22:57:07.949Z,5.83
2023-03-28T23:00:14.012Z,5.87
2023-03-28T23:03:17.505Z,6.02
2023-03-28T23:06:21.109Z,6.00
2023-03-28T23:09:27.313Z,6.07
2023-03-28T23:12:31.762Z,6.14
2023-03-28T23:15:34.817Z,6.23
2023-03-28T23:18:39.193Z,6.27
2023-03-28T23:21:43.562Z,6.28
2023-03-28T23:24:52.414Z,6.43
2023-03-28T23:27:56.404Z,6.54
2023-03-28T23:31:00.741Z,6.41
2023-03-28T23:34:05.093Z,6.59
2023-03-28T23:37:10.572Z,6.63
2023-03-28T23:40:16.830Z,6.65
2023-03-28T23:43:21.047Z,6.66
2023-03-28T23:46:24.902Z,6.82
2023-03-28T23:49:28.725Z,6.80
2023-03-28T23:52:31.844Z,6.91
2023-03-28T23:55:36.283Z,6.93
2023-03-28T23:58:39.899Z,6.90
